Home > Products > Valid Products > MTR

000
SAUS45 KLKN 281155
MTRP68
METAR KP68 281153Z AUTO 22003KT 17/07 A3028 RMK AO1 SLP168 T01720072
10233 20161 56004





000
SAUS45 KLKN 281055
MTRP68
METAR KP68 281053Z AUTO 18003KT 17/08 A3028 RMK AO1 SLP168 T01720078





000
SAUS45 KLKN 280958 COR
MTRP68
METAR KP68 280953Z AUTO 15005KT 20/08 A3028 RMK AO1 SLP164 T02000078





000
SAUS45 KLKN 280856
MTRP68
METAR KP68 280853Z AUTO 20004KT 21/08 A3030 RMK AO1 SLP160 T02060078
50003





000
SAUS45 KLKN 280756
MTRP68
METAR KP68 280753Z AUTO 18004KT 21/07 A3031 RMK AO1 SLP163 T02060072
403330150





000
SAUS45 KLKN 280654
MTRP68
METAR KP68 280653Z AUTO 17009KT 23/07 A3030 RMK AO1 SLP160 T02280067





000
SAUS45 KLKN 280556 COR
MTRP68
METAR KP68 280553Z AUTO 17009KT 23/07 A3029 RMK AO1 SLP154 T02330067
10306 20222 50004





000
SAUS45 KLKN 280456
MTRP68
METAR KP68 280453Z AUTO 16008KT 22/07 A3029 RMK AO1 SLP164 T02220072





000
SAUS45 KLKN 280354
MTRP68
METAR KP68 280353Z AUTO 15013KT 23/08 A3028 RMK AO1 PK WND
13029/0259 SLP163 T02280078





000
SAUS45 KLKN 280256
MTRP68
METAR KP68 280253Z AUTO 13019G27KT 24/08 A3027 RMK AO1 PK WND
13032/0236 SLP164 T02390078 53009





000
SAUS45 KLKN 280155
MTRP68
METAR KP68 280153Z AUTO 13011G20KT 27/07 A3025 RMK AO1 PK WND
14026/0143 WSHFT 0133 SLP158 T02670072





000
SAUS45 KLKN 280056
MTRP68
METAR KP68 280053Z AUTO 09005KT 29/03 A3024 RMK AO1 SLP151 T02940033





000
SAUS45 KLKN 272356
MTRP68
METAR KP68 272353Z AUTO 07009KT 27/08 A3024 RMK AO1 SLP149 T02670083
10333 20256 50000





000
SAUS45 KLKN 272256
MTRP68
METAR KP68 272253Z AUTO 04007KT 27/07 A3027 RMK AO1 PK WND
27027/2154 SLP160 T02670067





000
SAUS45 KLKN 272156
MTRP68
METAR KP68 272153Z AUTO 27019G27KT 27/06 A3027 RMK AO1 PK WND
26031/2102 WSHFT 2041 SLP154 T02720056





000
SAUS45 KLKN 272100
MTRP68
SPECI KP68 272058Z AUTO 26016G27KT 31/04 A3024 RMK AO1 WSHFT 2041
T03060044





000
SAUS45 KLKN 272055
MTRP68
METAR KP68 272053Z AUTO 27020G27KT 32/03 A3024 RMK AO1 PK WND
27027/2053 SLP136 T03220033 55009





000
SAUS45 KLKN 271956
MTRP68
METAR KP68 271953Z AUTO 16012G16KT 33/02 A3024 RMK AO1 SLP134
T03280022





000
SAUS45 KLKN 271855
MTRP68
METAR KP68 271853Z AUTO VRB03KT 32/02 A3025 RMK AO1 SLP139 T03170017





000
SAUS45 KLKN 271800 COR
MTRP68
METAR KP68 271753Z AUTO 25005KT 31/02 A3027 RMK AO1 SLP146 T03060017
10306 20150 58003





000
SAUS45 KLKN 271756 COR
MTRP68
METAR KP68 271753Z AUTO 25005KT 31/02 A3027 RMK AO1 SLP146 T03060017
10306 20150 58003





000
SAUS45 KLKN 271656
MTRP68
METAR KP68 271653Z AUTO 00000KT 26/02 A3029 RMK AO1 SLP156 T02610022





000
SAUS45 KLKN 271555
MTRP68
METAR KP68 271553Z AUTO 00000KT 23/02 A3029 RMK AO1 SLP163 T02330017





000
SAUS45 KLKN 271456
MTRP68
METAR KP68 271453Z AUTO 00000KT 20/02 A3028 RMK AO1 SLP161 T02000017
53013





000
SAUS45 KLKN 271354
MTRP68
METAR KP68 271353Z AUTO 17003KT 17/04 A3026 RMK AO1 SLP155 T01720039





000
SAUS45 KLKN 271254
MTRP68
METAR KP68 271253Z AUTO 00000KT 16/05 A3025 RMK AO1 SLP152 T01560050





000
SAUS45 KLKN 271155
MTRP68
METAR KP68 271153Z AUTO 00000KT 20/05 A3024 RMK AO1 SLP139 T02000050
10261 20167 53004





000
SAUS45 KLKN 271056
MTRP68
METAR KP68 271053Z AUTO 13003KT 19/04 A3023 RMK AO1 SLP138 T01890044





000
SAUS45 KLKN 270955
MTRP68
METAR KP68 270953Z AUTO 13006KT 22/06 A3023 RMK AO1 SLP132 T02220056





000
SAUS45 KLKN 270856
MTRP68
METAR KP68 270853Z AUTO 15009KT 23/06 A3022 RMK AO1 SLP131 T02280056
51004





000
SAUS45 KLKN 270755
MTRP68
METAR KP68 270753Z AUTO 15010KT 24/06 A3022 RMK AO1 SLP130 T02390056
403500072





000
SAUS45 KLKN 270656
MTRP68
METAR KP68 270653Z AUTO 15012KT 24/06 A3022 RMK AO1 SLP129 T02440056





000
SAUS45 KLKN 270555
MTRP68
METAR KP68 270553Z AUTO 12009KT 26/06 A3021 RMK AO1 SLP129 T02560056
10328 20250 50016





000
SAUS45 KLKN 270455
MTRP68
METAR KP68 270453Z AUTO 00000KT 27/M01 A3021 RMK AO1 SLP131
T02721011





000
SAUS45 KLKN 270356 COR
MTRP68
METAR KP68 270353Z AUTO VRB04KT 26/M01 A3018 RMK AO1 SLP125
T02611006





000
SAUS45 KLKN 270254
MTRP68
METAR KP68 270253Z AUTO 01006KT 29/M01 A3016 RMK AO1 SLP117
T02891011 55000





000
SAUS45 KLKN 270155
MTRP68
METAR KP68 270153Z AUTO 04004KT 32/M03 A3014 RMK AO1 SLP115
T03171033





000
SAUS45 KLKN 270055
MTRP68
METAR KP68 270053Z AUTO 09004KT 32/M04 A3014 RMK AO1 SLP124
T03221039





000
SAUS45 KLKN 262354
MTRP68
METAR KP68 262353Z AUTO 04007KT 33/M06 A3016 RMK AO1 SLP129
T03281061 10350 20272 56010





000
SAUS45 KLKN 262255
MTRP68
METAR KP68 262253Z AUTO 35006KT 33/M06 A3016 RMK AO1 SLP129
T03281061





000
SAUS45 KLKN 262154
MTRP68
METAR KP68 262153Z AUTO 08009G14KT 34/M06 A3017 RMK AO1 SLP126
T03441056





000
SAUS45 KLKN 262055
MTRP68
METAR KP68 262053Z AUTO VRB04KT 33/M07 A3019 RMK AO1 SLP134
T03281067 58018





000
SAUS45 KLKN 261955
MTRP68
METAR KP68 261953Z AUTO VRB04KT 32/M05 A3021 RMK AO1 SLP142
T03221050





000
SAUS45 KLKN 261854
MTRP68
METAR KP68 261853Z AUTO 02006KT 31/M04 A3023 RMK AO1 SLP151
T03061044





000
SAUS45 KLKN 261754
MTRP68
METAR KP68 261753Z AUTO 05004KT 27/M04 A3025 RMK AO1 SLP161
T02721044 10278 20072 58001





000
SAUS45 KLKN 261655
MTRP68
METAR KP68 261653Z AUTO 03006KT 24/M03 A3026 RMK AO1 SLP161
T02441033





000
SAUS45 KLKN 261555
MTRP68
METAR KP68 261553Z AUTO 02007KT 22/M03 A3027 RMK AO1 SLP161
T02221028





000
SAUS45 KLKN 261454
MTRP68
METAR KP68 261453Z AUTO 00000KT 20/M03 A3026 RMK AO1 SLP152
T02001033





000
SAUS45 KLKN 261354
MTRP68
METAR KP68 261353Z AUTO 18004KT 14/M03 A3024 RMK AO1 SLP150
T01441033





000
SAUS45 KLKN 261258 COR
MTRP68
METAR KP68 261253Z AUTO 19005KT 08/M04 A3022 RMK AO1 SLP151
T00831039





000
SAUS45 KLKN 261257 COR
MTRP68
METAR KP68 261253Z AUTO 19005KT 08/M04 A3022 RMK AO1 SLP151
T00831039





000
SAUS45 KLKN 261156
MTRP68
METAR KP68 261153Z AUTO 12004KT 08/M03 A3021 RMK AO1 SLP146
T00781028 10156 20078 53007





000
SAUS45 KLKN 261055
MTRP68
METAR KP68 261053Z AUTO 00000KT 09/M06 A3020 RMK AO1 SLP139
T00891056





000
SAUS45 KLKN 260954
MTRP68
METAR KP68 260953Z AUTO 17003KT 12/M07 A3019 RMK AO1 SLP133
T01171067





000
SAUS45 KLKN 260855
MTRP68
METAR KP68 260853Z AUTO 21004KT 13/M06 A3019 RMK AO1 SLP132
T01331056 51008





000
SAUS45 KLKN 260756
MTRP68
METAR KP68 260753Z AUTO 14003KT 13/M06 A3019 RMK AO1 SLP135
T01281056 403560089





000
SAUS45 KLKN 260656
MTRP68
METAR KP68 260653Z AUTO 19006KT 13/M06 A3017 RMK AO1 SLP132
T01331056





000
SAUS45 KLKN 260555
MTRP68
METAR KP68 260553Z AUTO 20005KT 14/M04 A3016 RMK AO1 SLP130
T01441039 10350 20144 51023





000
SAUS45 KLKN 260454
MTRP68
METAR KP68 260453Z AUTO 00000KT 18/M03 A3014 RMK AO1 SLP123
T01831028





000
SAUS45 KLKN 260355
MTRP68
METAR KP68 260353Z AUTO 02003KT 23/M03 A3011 RMK AO1 SLP110
T02281028





000
SAUS45 KLKN 260254
MTRP68
METAR KP68 260253Z AUTO 32009KT 28/M08 A3008 RMK AO1 SLP094
T02831078 53014





000
SAUS45 KLKN 260154
MTRP68
METAR KP68 260153Z AUTO 32013G19KT 32/M07 A3005 RMK AO1 SLP083
T03171072





000
SAUS45 KLKN 260055
MTRP68
METAR KP68 260053Z AUTO 27013G19KT 32/M08 A3004 RMK AO1 SLP084
T03221083





000
SAUS45 KLKN 252355
MTRP68
METAR KP68 252353Z AUTO 30013G21KT 35/M09 A3003 RMK AO1 PK WND
27028/2312 SLP076 T03501089 10356 20261 56014





000
SAUS45 KLKN 252255
MTRP68
METAR KP68 252253Z AUTO 27014G24KT 36/M08 A3004 RMK AO1 SLP077
T03561083





000
SAUS45 KLKN 252155
MTRP68
METAR KP68 252153Z AUTO 36006KT 33/M05 A3006 RMK AO1 SLP089
T03331050





000
SAUS45 KLKN 252055
MTRP68
METAR KP68 252053Z AUTO 33/M04 A3008 RMK AO1 SLP093 T03331039 58020





000
SAUS45 KLKN 251955
MTRP68
METAR KP68 251953Z AUTO VRB05KT 32/M03 A3010 RMK AO1 SLP100
T03171033





000
SAUS45 KLKN 251855
MTRP68
METAR KP68 251853Z AUTO 01007KT 320V020 29/M01 A3013 RMK AO1 SLP113
T02891011





000
SAUS45 KLKN 251756
MTRP68
METAR KP68 251753Z AUTO 34007KT 27/01 A3015 RMK AO1 SLP122 T02670006
10267 20089 58004





000
SAUS45 KLKN 251655
MTRP68
METAR KP68 251653Z AUTO 03005KT 23/M01 A3016 RMK AO1 SLP127
T02281006





000
SAUS45 KLKN 251556
MTRP68
METAR KP68 251553Z AUTO 03004KT 20/01 A3016 RMK AO1 SLP130 T02000011





000
SAUS45 KLKN 251456
MTRP68
METAR KP68 251453Z AUTO 34005KT 18/00 A3016 RMK AO1 SLP126 T01780000
52005





000
SAUS45 KLKN 251356
MTRP68
METAR KP68 251353Z AUTO 00000KT 15/M01 A3016 RMK AO1 SLP122
T01501006





000
SAUS45 KLKN 251259 COR
MTRP68
METAR KP68 251253Z AUTO 18004KT 09/M02 A3015 RMK AO1 SLP126
T00941017





000
SAUS45 KLKN 251257 COR
MTRP68
METAR KP68 251253Z AUTO 18004KT 09/M02 A3015 RMK AO1 SLP126
T00941017





000
SAUS45 KLKN 251256 COR
MTRP68
METAR KP68 251253Z AUTO 18004KT 09/M02 A3015 RMK AO1 SLP126
T00941017





000
SAUS45 KLKN 251255
MTRP68
METAR KP68 251253Z AUTO 18004KT 09/M02 A3015 RMK AO1 SLP126
T00941017





    US Dept of Commerce
    National Oceanic and Atmospheric Administration
    National Weather Service
    1325 East West Highway
    Silver Spring, MD 20910
    Page Author: NWS Internet Services Team
Disclaimer
Information Quality
Credits
Glossary
Privacy Policy
Freedom of Information Act (FOIA)
About Us
Career Opportunities